Allenton, Michigan
Current Conditions -  °F | °C
As of 9:33 AM on Friday 28 Nov 2014 (Local Time) from KD95 Reporting Station
Scattered Clouds Scattered Clouds  
Wind Chill: 12°   Ceiling: Unl
Heat Index: 20°   Visibility: 10mi
Dew Point: 10°   Wind: 6mph
Humidity: 67%   Direction: 260°W
Pressure: 30.31"   Gusts: NA
Location:  42.92°N, 82.95°W
Report Text: KD95 281433Z AUTO 26005KT 10SM SCT110 M07/M12 A3031 RMK AO2 T10681121
Loading
Personal Weather Stations






























Interactive Weather Map New forecast layout! Learn more

10-Day Weather Forecast

Advertisements
Track Severe Weather on mobile